sensor_id;sensor_type;location;lat;lon;timestamp;P1;durP1;ratioP1;P2;durP2;ratioP2
70150;SDS011;57517;43.562;19.540;2024-03-22T00:02:02;25.00;;;14.27;;
70150;SDS011;57517;43.562;19.540;2024-03-22T00:04:28;28.48;;;16.13;;
70150;SDS011;57517;43.562;19.540;2024-03-22T00:06:53;26.08;;;16.83;;
70150;SDS011;57517;43.562;19.540;2024-03-22T00:09:19;35.10;;;20.00;;
70150;SDS011;57517;43.562;19.540;2024-03-22T00:11:45;32.78;;;18.77;;
70150;SDS011;57517;43.562;19.540;2024-03-22T00:14:11;28.08;;;17.83;;
70150;SDS011;57517;43.562;19.540;2024-03-22T00:16:37;31.15;;;19.15;;
70150;SDS011;57517;43.562;19.540;2024-03-22T00:19:03;35.25;;;21.42;;
70150;SDS011;57517;43.562;19.540;2024-03-22T00:21:29;27.35;;;19.10;;
70150;SDS011;57517;43.562;19.540;2024-03-22T00:23:58;23.60;;;16.35;;
70150;SDS011;57517;43.562;19.540;2024-03-22T00:26:26;23.38;;;15.10;;
70150;SDS011;57517;43.562;19.540;2024-03-22T00:28:52;20.60;;;13.55;;
70150;SDS011;57517;43.562;19.540;2024-03-22T00:31:18;22.85;;;16.30;;
70150;SDS011;57517;43.562;19.540;2024-03-22T00:33:43;24.33;;;15.73;;
70150;SDS011;57517;43.562;19.540;2024-03-22T00:36:09;22.40;;;16.67;;
70150;SDS011;57517;43.562;19.540;2024-03-22T00:38:35;29.88;;;20.65;;
70150;SDS011;57517;43.562;19.540;2024-03-22T00:41:01;30.38;;;21.42;;
70150;SDS011;57517;43.562;19.540;2024-03-22T00:43:27;33.00;;;20.08;;
70150;SDS011;57517;43.562;19.540;2024-03-22T00:45:53;23.98;;;16.23;;
70150;SDS011;57517;43.562;19.540;2024-03-22T00:48:19;21.50;;;15.15;;
70150;SDS011;57517;43.562;19.540;2024-03-22T00:50:44;21.17;;;14.68;;
70150;SDS011;57517;43.562;19.540;2024-03-22T00:53:10;17.05;;;12.45;;
70150;SDS011;57517;43.562;19.540;2024-03-22T00:55:36;19.33;;;13.60;;
70150;SDS011;57517;43.562;19.540;2024-03-22T00:58:02;19.10;;;13.75;;
70150;SDS011;57517;43.562;19.540;2024-03-22T01:00:28;20.15;;;13.65;;
70150;SDS011;57517;43.562;19.540;2024-03-22T01:02:54;24.17;;;15.02;;
70150;SDS011;57517;43.562;19.540;2024-03-22T01:05:20;20.23;;;14.88;;
70150;SDS011;57517;43.562;19.540;2024-03-22T01:07:45;23.23;;;17.13;;
70150;SDS011;57517;43.562;19.540;2024-03-22T01:10:11;23.30;;;16.65;;
70150;SDS011;57517;43.562;19.540;2024-03-22T01:12:37;19.88;;;15.35;;
70150;SDS011;57517;43.562;19.540;2024-03-22T01:15:04;24.42;;;17.63;;
70150;SDS011;57517;43.562;19.540;2024-03-22T01:17:31;21.70;;;15.43;;
70150;SDS011;57517;43.562;19.540;2024-03-22T01:19:57;19.75;;;14.38;;
70150;SDS011;57517;43.562;19.540;2024-03-22T01:22:23;26.38;;;15.98;;
70150;SDS011;57517;43.562;19.540;2024-03-22T01:24:49;25.23;;;17.70;;
70150;SDS011;57517;43.562;19.540;2024-03-22T01:27:15;18.10;;;14.68;;
70150;SDS011;57517;43.562;19.540;2024-03-22T01:29:40;17.98;;;12.27;;
70150;SDS011;57517;43.562;19.540;2024-03-22T01:32:06;18.08;;;12.23;;
70150;SDS011;57517;43.562;19.540;2024-03-22T01:34:32;17.13;;;12.82;;
70150;SDS011;57517;43.562;19.540;2024-03-22T01:36:59;29.35;;;22.45;;
70150;SDS011;57517;43.562;19.540;2024-03-22T01:39:26;31.23;;;20.17;;
70150;SDS011;57517;43.562;19.540;2024-03-22T01:41:51;30.73;;;18.23;;
70150;SDS011;57517;43.562;19.540;2024-03-22T01:44:17;29.33;;;18.08;;
70150;SDS011;57517;43.562;19.540;2024-03-22T01:46:44;25.35;;;16.70;;
70150;SDS011;57517;43.562;19.540;2024-03-22T01:49:14;20.95;;;14.45;;
70150;SDS011;57517;43.562;19.540;2024-03-22T01:51:41;22.08;;;13.85;;
70150;SDS011;57517;43.562;19.540;2024-03-22T01:54:10;18.60;;;14.10;;
70150;SDS011;57517;43.562;19.540;2024-03-22T01:56:38;21.10;;;13.57;;
70150;SDS011;57517;43.562;19.540;2024-03-22T01:59:05;20.35;;;13.35;;
70150;SDS011;57517;43.562;19.540;2024-03-22T02:01:31;17.35;;;11.15;;
70150;SDS011;57517;43.562;19.540;2024-03-22T02:03:58;15.55;;;10.57;;
70150;SDS011;57517;43.562;19.540;2024-03-22T02:06:24;13.32;;;9.75;;
70150;SDS011;57517;43.562;19.540;2024-03-22T02:08:50;14.38;;;10.05;;
70150;SDS011;57517;43.562;19.540;2024-03-22T02:11:16;18.75;;;12.50;;
70150;SDS011;57517;43.562;19.540;2024-03-22T02:13:41;18.88;;;12.88;;
70150;SDS011;57517;43.562;19.540;2024-03-22T02:16:10;17.58;;;11.77;;
70150;SDS011;57517;43.562;19.540;2024-03-22T02:18:36;15.55;;;10.95;;
70150;SDS011;57517;43.562;19.540;2024-03-22T02:21:02;19.17;;;13.32;;
70150;SDS011;57517;43.562;19.540;2024-03-22T02:23:37;16.67;;;13.15;;
70150;SDS011;57517;43.562;19.540;2024-03-22T02:26:04;21.17;;;14.27;;
70150;SDS011;57517;43.562;19.540;2024-03-22T02:28:31;21.42;;;14.60;;
70150;SDS011;57517;43.562;19.540;2024-03-22T02:30:58;20.02;;;14.50;;
70150;SDS011;57517;43.562;19.540;2024-03-22T02:33:24;21.10;;;13.43;;
70150;SDS011;57517;43.562;19.540;2024-03-22T02:35:50;13.98;;;10.57;;
70150;SDS011;57517;43.562;19.540;2024-03-22T02:38:17;13.80;;;10.60;;
70150;SDS011;57517;43.562;19.540;2024-03-22T02:40:43;16.05;;;10.98;;
70150;SDS011;57517;43.562;19.540;2024-03-22T02:43:10;15.98;;;9.88;;
70150;SDS011;57517;43.562;19.540;2024-03-22T02:45:36;13.80;;;10.40;;
70150;SDS011;57517;43.562;19.540;2024-03-22T02:48:02;17.27;;;10.65;;
70150;SDS011;57517;43.562;19.540;2024-03-22T02:50:32;18.67;;;10.93;;
70150;SDS011;57517;43.562;19.540;2024-03-22T02:52:58;14.95;;;10.10;;
70150;SDS011;57517;43.562;19.540;2024-03-22T02:55:24;16.23;;;11.10;;
70150;SDS011;57517;43.562;19.540;2024-03-22T02:57:50;13.85;;;9.48;;
70150;SDS011;57517;43.562;19.540;2024-03-22T03:00:16;13.55;;;10.05;;
70150;SDS011;57517;43.562;19.540;2024-03-22T03:02:43;15.40;;;10.70;;
70150;SDS011;57517;43.562;19.540;2024-03-22T03:05:09;20.55;;;13.07;;
70150;SDS011;57517;43.562;19.540;2024-03-22T03:07:35;16.15;;;12.52;;
70150;SDS011;57517;43.562;19.540;2024-03-22T03:10:01;12.70;;;10.30;;
70150;SDS011;57517;43.562;19.540;2024-03-22T03:12:27;15.73;;;11.20;;
70150;SDS011;57517;43.562;19.540;2024-03-22T03:14:53;16.40;;;10.70;;
70150;SDS011;57517;43.562;19.540;2024-03-22T03:17:18;12.55;;;10.63;;
70150;SDS011;57517;43.562;19.540;2024-03-22T03:19:44;15.35;;;10.40;;
70150;SDS011;57517;43.562;19.540;2024-03-22T03:22:10;14.02;;;10.30;;
70150;SDS011;57517;43.562;19.540;2024-03-22T03:24:35;15.95;;;10.90;;
70150;SDS011;57517;43.562;19.540;2024-03-22T03:27:01;16.38;;;11.75;;
70150;SDS011;57517;43.562;19.540;2024-03-22T03:29:28;16.27;;;12.48;;
70150;SDS011;57517;43.562;19.540;2024-03-22T03:31:53;19.13;;;13.00;;
70150;SDS011;57517;43.562;19.540;2024-03-22T03:34:19;20.45;;;13.25;;
70150;SDS011;57517;43.562;19.540;2024-03-22T03:36:46;16.23;;;12.05;;
70150;SDS011;57517;43.562;19.540;2024-03-22T03:39:11;16.33;;;11.43;;
70150;SDS011;57517;43.562;19.540;2024-03-22T03:41:37;15.00;;;10.35;;
70150;SDS011;57517;43.562;19.540;2024-03-22T03:44:03;12.35;;;9.15;;
70150;SDS011;57517;43.562;19.540;2024-03-22T03:46:29;12.57;;;8.38;;
70150;SDS011;57517;43.562;19.540;2024-03-22T03:48:55;15.43;;;11.13;;
70150;SDS011;57517;43.562;19.540;2024-03-22T03:51:20;19.02;;;13.15;;
70150;SDS011;57517;43.562;19.540;2024-03-22T03:53:46;17.02;;;11.93;;
70150;SDS011;57517;43.562;19.540;2024-03-22T03:56:12;18.67;;;12.77;;
70150;SDS011;57517;43.562;19.540;2024-03-22T03:58:38;19.13;;;13.27;;
70150;SDS011;57517;43.562;19.540;2024-03-22T04:01:07;14.70;;;10.63;;
70150;SDS011;57517;43.562;19.540;2024-03-22T04:03:33;16.25;;;9.43;;
70150;SDS011;57517;43.562;19.540;2024-03-22T04:05:59;17.98;;;9.82;;
70150;SDS011;57517;43.562;19.540;2024-03-22T04:08:25;13.57;;;9.18;;
70150;SDS011;57517;43.562;19.540;2024-03-22T04:10:52;12.27;;;8.80;;
70150;SDS011;57517;43.562;19.540;2024-03-22T04:13:18;14.25;;;9.43;;
70150;SDS011;57517;43.562;19.540;2024-03-22T04:15:44;14.00;;;9.65;;
70150;SDS011;57517;43.562;19.540;2024-03-22T04:18:10;15.05;;;9.98;;
70150;SDS011;57517;43.562;19.540;2024-03-22T04:20:35;14.23;;;10.95;;
70150;SDS011;57517;43.562;19.540;2024-03-22T04:23:01;16.67;;;12.40;;
70150;SDS011;57517;43.562;19.540;2024-03-22T04:25:27;18.38;;;11.63;;
70150;SDS011;57517;43.562;19.540;2024-03-22T04:27:53;18.30;;;10.57;;
70150;SDS011;57517;43.562;19.540;2024-03-22T04:30:18;13.98;;;9.30;;
70150;SDS011;57517;43.562;19.540;2024-03-22T04:32:47;13.38;;;9.98;;
70150;SDS011;57517;43.562;19.540;2024-03-22T04:35:13;14.23;;;9.85;;
70150;SDS011;57517;43.562;19.540;2024-03-22T04:37:39;11.40;;;8.93;;
70150;SDS011;57517;43.562;19.540;2024-03-22T04:40:04;11.68;;;8.75;;
70150;SDS011;57517;43.562;19.540;2024-03-22T04:42:31;14.35;;;9.98;;
70150;SDS011;57517;43.562;19.540;2024-03-22T04:44:57;12.82;;;9.20;;
70150;SDS011;57517;43.562;19.540;2024-03-22T04:47:23;12.93;;;9.65;;
70150;SDS011;57517;43.562;19.540;2024-03-22T04:49:49;14.07;;;10.15;;
70150;SDS011;57517;43.562;19.540;2024-03-22T04:52:14;17.08;;;11.15;;
70150;SDS011;57517;43.562;19.540;2024-03-22T04:54:40;15.48;;;10.18;;
70150;SDS011;57517;43.562;19.540;2024-03-22T04:57:06;13.55;;;10.23;;
70150;SDS011;57517;43.562;19.540;2024-03-22T04:59:32;15.65;;;10.95;;
70150;SDS011;57517;43.562;19.540;2024-03-22T05:01:58;23.33;;;15.00;;
70150;SDS011;57517;43.562;19.540;2024-03-22T05:04:23;18.58;;;13.80;;
70150;SDS011;57517;43.562;19.540;2024-03-22T05:06:49;15.30;;;10.77;;
70150;SDS011;57517;43.562;19.540;2024-03-22T05:09:15;14.93;;;9.95;;
70150;SDS011;57517;43.562;19.540;2024-03-22T05:11:41;14.50;;;10.32;;
70150;SDS011;57517;43.562;19.540;2024-03-22T05:14:06;16.58;;;10.35;;
70150;SDS011;57517;43.562;19.540;2024-03-22T05:16:32;15.63;;;11.48;;
70150;SDS011;57517;43.562;19.540;2024-03-22T05:18:58;18.70;;;13.02;;
70150;SDS011;57517;43.562;19.540;2024-03-22T05:21:24;17.52;;;13.23;;
70150;SDS011;57517;43.562;19.540;2024-03-22T05:23:50;21.33;;;14.63;;
70150;SDS011;57517;43.562;19.540;2024-03-22T05:26:15;21.92;;;16.63;;
70150;SDS011;57517;43.562;19.540;2024-03-22T05:28:43;26.02;;;18.80;;
70150;SDS011;57517;43.562;19.540;2024-03-22T05:31:09;28.70;;;20.67;;
70150;SDS011;57517;43.562;19.540;2024-03-22T05:33:35;37.03;;;24.80;;
70150;SDS011;57517;43.562;19.540;2024-03-22T05:36:00;36.80;;;24.00;;
70150;SDS011;57517;43.562;19.540;2024-03-22T05:38:26;33.28;;;22.85;;
70150;SDS011;57517;43.562;19.540;2024-03-22T05:40:52;28.80;;;20.10;;
70150;SDS011;57517;43.562;19.540;2024-03-22T05:43:18;26.58;;;20.35;;
70150;SDS011;57517;43.562;19.540;2024-03-22T05:45:43;27.92;;;20.35;;
70150;SDS011;57517;43.562;19.540;2024-03-22T05:48:09;28.27;;;20.55;;
70150;SDS011;57517;43.562;19.540;2024-03-22T05:50:35;24.02;;;18.48;;
70150;SDS011;57517;43.562;19.540;2024-03-22T05:53:01;27.05;;;19.67;;
70150;SDS011;57517;43.562;19.540;2024-03-22T05:55:26;28.02;;;20.83;;
70150;SDS011;57517;43.562;19.540;2024-03-22T05:57:56;27.45;;;21.42;;
70150;SDS011;57517;43.562;19.540;2024-03-22T06:00:22;31.08;;;24.25;;
70150;SDS011;57517;43.562;19.540;2024-03-22T06:02:47;38.97;;;26.20;;
70150;SDS011;57517;43.562;19.540;2024-03-22T06:05:13;31.23;;;25.00;;
70150;SDS011;57517;43.562;19.540;2024-03-22T06:07:39;35.05;;;24.58;;
70150;SDS011;57517;43.562;19.540;2024-03-22T06:10:07;32.58;;;23.90;;
70150;SDS011;57517;43.562;19.540;2024-03-22T06:12:36;30.75;;;22.55;;
70150;SDS011;57517;43.562;19.540;2024-03-22T06:15:03;27.50;;;21.30;;
70150;SDS011;57517;43.562;19.540;2024-03-22T06:17:31;26.63;;;19.95;;
70150;SDS011;57517;43.562;19.540;2024-03-22T06:19:58;32.40;;;23.30;;
70150;SDS011;57517;43.562;19.540;2024-03-22T06:22:25;32.65;;;24.45;;
70150;SDS011;57517;43.562;19.540;2024-03-22T06:24:50;28.52;;;22.63;;
70150;SDS011;57517;43.562;19.540;2024-03-22T06:27:16;27.35;;;20.77;;
70150;SDS011;57517;43.562;19.540;2024-03-22T06:29:42;24.55;;;19.27;;
70150;SDS011;57517;43.562;19.540;2024-03-22T06:32:08;27.95;;;19.85;;
70150;SDS011;57517;43.562;19.540;2024-03-22T06:34:34;27.27;;;21.17;;
70150;SDS011;57517;43.562;19.540;2024-03-22T06:37:00;27.35;;;20.98;;
70150;SDS011;57517;43.562;19.540;2024-03-22T06:39:26;26.67;;;21.45;;
70150;SDS011;57517;43.562;19.540;2024-03-22T06:41:51;28.92;;;19.50;;
70150;SDS011;57517;43.562;19.540;2024-03-22T06:44:17;27.02;;;18.83;;
70150;SDS011;57517;43.562;19.540;2024-03-22T06:46:43;24.23;;;19.67;;
70150;SDS011;57517;43.562;19.540;2024-03-22T06:49:09;29.13;;;21.98;;
70150;SDS011;57517;43.562;19.540;2024-03-22T06:51:35;26.05;;;21.13;;
70150;SDS011;57517;43.562;19.540;2024-03-22T06:54:01;31.88;;;20.90;;
70150;SDS011;57517;43.562;19.540;2024-03-22T06:56:27;26.92;;;20.00;;
70150;SDS011;57517;43.562;19.540;2024-03-22T06:58:53;25.80;;;20.02;;
70150;SDS011;57517;43.562;19.540;2024-03-22T07:01:18;29.70;;;22.08;;
70150;SDS011;57517;43.562;19.540;2024-03-22T07:03:46;27.67;;;22.40;;
70150;SDS011;57517;43.562;19.540;2024-03-22T07:06:13;26.70;;;20.92;;
70150;SDS011;57517;43.562;19.540;2024-03-22T07:08:39;24.80;;;20.17;;
70150;SDS011;57517;43.562;19.540;2024-03-22T07:11:05;33.45;;;24.95;;
70150;SDS011;57517;43.562;19.540;2024-03-22T07:13:31;27.35;;;23.02;;
70150;SDS011;57517;43.562;19.540;2024-03-22T07:15:57;45.20;;;40.03;;
70150;SDS011;57517;43.562;19.540;2024-03-22T07:18:23;59.70;;;53.13;;
70150;SDS011;57517;43.562;19.540;2024-03-22T07:20:49;99.25;;;82.90;;
70150;SDS011;57517;43.562;19.540;2024-03-22T07:23:14;46.95;;;37.85;;
70150;SDS011;57517;43.562;19.540;2024-03-22T07:25:40;49.90;;;41.55;;
70150;SDS011;57517;43.562;19.540;2024-03-22T07:28:10;64.53;;;43.08;;
70150;SDS011;57517;43.562;19.540;2024-03-22T07:30:36;68.90;;;44.13;;
70150;SDS011;57517;43.562;19.540;2024-03-22T07:33:02;56.65;;;35.83;;
70150;SDS011;57517;43.562;19.540;2024-03-22T07:35:29;27.95;;;24.88;;
70150;SDS011;57517;43.562;19.540;2024-03-22T07:37:54;30.60;;;22.17;;
70150;SDS011;57517;43.562;19.540;2024-03-22T07:40:21;24.23;;;20.23;;
70150;SDS011;57517;43.562;19.540;2024-03-22T07:42:47;38.38;;;28.77;;
70150;SDS011;57517;43.562;19.540;2024-03-22T07:45:13;73.88;;;45.60;;
70150;SDS011;57517;43.562;19.540;2024-03-22T07:47:38;43.33;;;27.38;;
70150;SDS011;57517;43.562;19.540;2024-03-22T07:50:07;34.35;;;23.42;;
70150;SDS011;57517;43.562;19.540;2024-03-22T07:52:33;30.35;;;24.20;;
70150;SDS011;57517;43.562;19.540;2024-03-22T07:54:59;25.90;;;20.75;;
70150;SDS011;57517;43.562;19.540;2024-03-22T07:57:27;26.63;;;21.75;;
70150;SDS011;57517;43.562;19.540;2024-03-22T07:59:57;26.67;;;20.05;;
70150;SDS011;57517;43.562;19.540;2024-03-22T08:02:23;24.23;;;18.15;;
70150;SDS011;57517;43.562;19.540;2024-03-22T08:04:49;20.92;;;15.98;;
70150;SDS011;57517;43.562;19.540;2024-03-22T08:07:15;18.27;;;16.33;;
70150;SDS011;57517;43.562;19.540;2024-03-22T08:09:40;19.67;;;14.82;;
70150;SDS011;57517;43.562;19.540;2024-03-22T08:12:06;17.48;;;13.95;;
70150;SDS011;57517;43.562;19.540;2024-03-22T08:14:32;21.77;;;17.02;;
70150;SDS011;57517;43.562;19.540;2024-03-22T08:16:59;19.92;;;15.45;;
70150;SDS011;57517;43.562;19.540;2024-03-22T08:19:24;26.35;;;20.02;;
70150;SDS011;57517;43.562;19.540;2024-03-22T08:21:50;19.02;;;16.35;;
70150;SDS011;57517;43.562;19.540;2024-03-22T08:24:17;24.85;;;17.08;;
70150;SDS011;57517;43.562;19.540;2024-03-22T08:26:43;72.35;;;50.38;;
70150;SDS011;57517;43.562;19.540;2024-03-22T08:29:11;74.10;;;43.28;;
70150;SDS011;57517;43.562;19.540;2024-03-22T08:31:38;30.17;;;24.10;;
70150;SDS011;57517;43.562;19.540;2024-03-22T08:34:04;21.38;;;17.27;;
70150;SDS011;57517;43.562;19.540;2024-03-22T08:36:30;23.33;;;15.98;;
70150;SDS011;57517;43.562;19.540;2024-03-22T08:38:56;19.15;;;15.40;;
70150;SDS011;57517;43.562;19.540;2024-03-22T08:41:23;18.27;;;15.32;;
70150;SDS011;57517;43.562;19.540;2024-03-22T08:43:49;18.80;;;14.15;;
70150;SDS011;57517;43.562;19.540;2024-03-22T08:46:15;18.13;;;15.77;;
70150;SDS011;57517;43.562;19.540;2024-03-22T08:48:41;20.40;;;15.57;;
70150;SDS011;57517;43.562;19.540;2024-03-22T08:51:07;14.00;;;12.50;;
70150;SDS011;57517;43.562;19.540;2024-03-22T08:53:33;18.05;;;14.32;;
70150;SDS011;57517;43.562;19.540;2024-03-22T08:56:00;18.25;;;14.57;;
70150;SDS011;57517;43.562;19.540;2024-03-22T08:58:26;20.90;;;18.10;;
70150;SDS011;57517;43.562;19.540;2024-03-22T09:00:52;20.80;;;16.40;;
70150;SDS011;57517;43.562;19.540;2024-03-22T09:03:18;14.93;;;13.10;;
70150;SDS011;57517;43.562;19.540;2024-03-22T09:05:46;16.00;;;12.00;;
70150;SDS011;57517;43.562;19.540;2024-03-22T09:08:12;17.33;;;12.88;;
70150;SDS011;57517;43.562;19.540;2024-03-22T09:10:38;18.20;;;14.95;;
70150;SDS011;57517;43.562;19.540;2024-03-22T09:13:04;19.42;;;17.13;;
70150;SDS011;57517;43.562;19.540;2024-03-22T09:15:29;22.73;;;18.15;;
70150;SDS011;57517;43.562;19.540;2024-03-22T09:17:56;16.30;;;12.82;;
70150;SDS011;57517;43.562;19.540;2024-03-22T09:20:22;16.42;;;11.85;;
70150;SDS011;57517;43.562;19.540;2024-03-22T09:22:48;13.65;;;11.23;;
70150;SDS011;57517;43.562;19.540;2024-03-22T09:25:14;12.95;;;11.05;;
70150;SDS011;57517;43.562;19.540;2024-03-22T09:27:40;13.40;;;11.65;;
70150;SDS011;57517;43.562;19.540;2024-03-22T09:30:07;17.55;;;13.23;;
70150;SDS011;57517;43.562;19.540;2024-03-22T09:32:34;20.58;;;15.63;;
70150;SDS011;57517;43.562;19.540;2024-03-22T09:35:01;14.43;;;11.35;;
70150;SDS011;57517;43.562;19.540;2024-03-22T09:37:27;24.48;;;19.05;;
70150;SDS011;57517;43.562;19.540;2024-03-22T09:39:53;14.77;;;11.13;;
70150;SDS011;57517;43.562;19.540;2024-03-22T09:42:19;19.60;;;16.08;;
70150;SDS011;57517;43.562;19.540;2024-03-22T09:44:48;17.25;;;13.40;;
70150;SDS011;57517;43.562;19.540;2024-03-22T09:47:15;16.20;;;11.73;;
70150;SDS011;57517;43.562;19.540;2024-03-22T09:49:42;14.23;;;10.50;;
70150;SDS011;57517;43.562;19.540;2024-03-22T09:52:11;13.98;;;9.93;;
70150;SDS011;57517;43.562;19.540;2024-03-22T09:54:40;33.20;;;21.20;;
70150;SDS011;57517;43.562;19.540;2024-03-22T09:57:08;16.40;;;12.57;;
70150;SDS011;57517;43.562;19.540;2024-03-22T09:59:38;21.70;;;14.43;;
70150;SDS011;57517;43.562;19.540;2024-03-22T10:02:04;26.75;;;19.75;;
70150;SDS011;57517;43.562;19.540;2024-03-22T10:04:36;23.15;;;17.65;;
70150;SDS011;57517;43.562;19.540;2024-03-22T10:07:02;22.77;;;14.05;;
70150;SDS011;57517;43.562;19.540;2024-03-22T10:09:29;14.35;;;9.93;;
70150;SDS011;57517;43.562;19.540;2024-03-22T10:11:55;9.35;;;6.82;;
70150;SDS011;57517;43.562;19.540;2024-03-22T10:14:22;23.33;;;10.75;;
70150;SDS011;57517;43.562;19.540;2024-03-22T10:16:50;15.60;;;8.50;;
70150;SDS011;57517;43.562;19.540;2024-03-22T10:19:23;13.45;;;9.15;;
70150;SDS011;57517;43.562;19.540;2024-03-22T10:22:04;11.32;;;6.35;;
70150;SDS011;57517;43.562;19.540;2024-03-22T10:24:33;46.47;;;25.95;;
70150;SDS011;57517;43.562;19.540;2024-03-22T10:26:59;11.05;;;7.10;;
70150;SDS011;57517;43.562;19.540;2024-03-22T10:29:25;13.55;;;8.43;;
70150;SDS011;57517;43.562;19.540;2024-03-22T10:31:51;21.75;;;9.95;;
70150;SDS011;57517;43.562;19.540;2024-03-22T10:34:19;35.45;;;19.83;;
70150;SDS011;57517;43.562;19.540;2024-03-22T10:36:46;13.82;;;8.68;;
70150;SDS011;57517;43.562;19.540;2024-03-22T10:39:13;16.60;;;7.30;;
70150;SDS011;57517;43.562;19.540;2024-03-22T10:41:46;17.27;;;8.30;;
70150;SDS011;57517;43.562;19.540;2024-03-22T10:44:13;9.30;;;5.63;;
70150;SDS011;57517;43.562;19.540;2024-03-22T10:46:43;6.90;;;5.15;;
70150;SDS011;57517;43.562;19.540;2024-03-22T10:49:11;10.07;;;7.07;;
70150;SDS011;57517;43.562;19.540;2024-03-22T10:52:06;9.57;;;6.03;;
70150;SDS011;57517;43.562;19.540;2024-03-22T10:54:33;23.60;;;14.43;;
70150;SDS011;57517;43.562;19.540;2024-03-22T10:57:04;11.70;;;8.02;;
70150;SDS011;57517;43.562;19.540;2024-03-22T10:59:35;31.90;;;17.48;;
70150;SDS011;57517;43.562;19.540;2024-03-22T11:02:03;9.65;;;6.55;;
70150;SDS011;57517;43.562;19.540;2024-03-22T11:04:32;12.68;;;8.52;;
70150;SDS011;57517;43.562;19.540;2024-03-22T11:06:57;9.95;;;6.03;;
70150;SDS011;57517;43.562;19.540;2024-03-22T11:09:27;11.95;;;7.38;;
70150;SDS011;57517;43.562;19.540;2024-03-22T11:11:53;8.70;;;6.20;;
70150;SDS011;57517;43.562;19.540;2024-03-22T11:14:20;7.32;;;5.32;;
70150;SDS011;57517;43.562;19.540;2024-03-22T11:16:46;6.75;;;5.28;;
70150;SDS011;57517;43.562;19.540;2024-03-22T11:19:12;7.75;;;5.55;;
70150;SDS011;57517;43.562;19.540;2024-03-22T11:21:38;9.88;;;5.68;;
70150;SDS011;57517;43.562;19.540;2024-03-22T11:24:04;20.63;;;13.73;;
70150;SDS011;57517;43.562;19.540;2024-03-22T11:26:31;11.85;;;8.10;;
70150;SDS011;57517;43.562;19.540;2024-03-22T11:28:58;9.43;;;6.47;;
70150;SDS011;57517;43.562;19.540;2024-03-22T11:31:25;10.85;;;7.43;;
70150;SDS011;57517;43.562;19.540;2024-03-22T11:33:55;6.97;;;5.72;;
70150;SDS011;57517;43.562;19.540;2024-03-22T11:36:22;13.10;;;7.43;;
70150;SDS011;57517;43.562;19.540;2024-03-22T11:38:48;11.90;;;6.10;;
70150;SDS011;57517;43.562;19.540;2024-03-22T11:41:22;17.30;;;11.32;;
70150;SDS011;57517;43.562;19.540;2024-03-22T11:43:52;12.30;;;8.25;;
70150;SDS011;57517;43.562;19.540;2024-03-22T11:46:19;15.02;;;9.75;;
70150;SDS011;57517;43.562;19.540;2024-03-22T11:48:50;17.58;;;8.63;;
70150;SDS011;57517;43.562;19.540;2024-03-22T11:51:17;10.50;;;7.50;;
70150;SDS011;57517;43.562;19.540;2024-03-22T11:53:52;12.13;;;7.50;;
70150;SDS011;57517;43.562;19.540;2024-03-22T11:56:21;7.22;;;5.53;;
70150;SDS011;57517;43.562;19.540;2024-03-22T11:58:47;9.00;;;6.57;;
70150;SDS011;57517;43.562;19.540;2024-03-22T12:01:17;8.25;;;5.93;;
70150;SDS011;57517;43.562;19.540;2024-03-22T12:03:45;10.38;;;5.72;;
70150;SDS011;57517;43.562;19.540;2024-03-22T12:06:12;10.02;;;6.63;;
70150;SDS011;57517;43.562;19.540;2024-03-22T12:08:40;11.63;;;7.32;;
70150;SDS011;57517;43.562;19.540;2024-03-22T12:11:09;13.23;;;6.97;;
70150;SDS011;57517;43.562;19.540;2024-03-22T12:13:35;10.93;;;6.55;;
70150;SDS011;57517;43.562;19.540;2024-03-22T12:16:03;9.40;;;5.78;;
70150;SDS011;57517;43.562;19.540;2024-03-22T12:18:29;10.95;;;6.10;;
70150;SDS011;57517;43.562;19.540;2024-03-22T12:20:55;8.50;;;5.75;;
70150;SDS011;57517;43.562;19.540;2024-03-22T12:23:21;11.38;;;6.13;;
70150;SDS011;57517;43.562;19.540;2024-03-22T12:25:49;10.02;;;6.03;;
70150;SDS011;57517;43.562;19.540;2024-03-22T12:28:16;9.38;;;6.10;;
70150;SDS011;57517;43.562;19.540;2024-03-22T12:30:42;8.32;;;6.00;;
70150;SDS011;57517;43.562;19.540;2024-03-22T12:33:08;8.88;;;6.47;;
70150;SDS011;57517;43.562;19.540;2024-03-22T12:35:36;8.00;;;6.07;;
70150;SDS011;57517;43.562;19.540;2024-03-22T12:38:02;11.80;;;8.35;;
70150;SDS011;57517;43.562;19.540;2024-03-22T12:40:28;12.27;;;8.40;;
70150;SDS011;57517;43.562;19.540;2024-03-22T12:42:55;9.23;;;6.10;;
70150;SDS011;57517;43.562;19.540;2024-03-22T12:45:21;9.52;;;7.07;;
70150;SDS011;57517;43.562;19.540;2024-03-22T12:47:47;10.90;;;6.95;;
70150;SDS011;57517;43.562;19.540;2024-03-22T12:50:13;11.25;;;7.43;;
70150;SDS011;57517;43.562;19.540;2024-03-22T12:52:40;7.85;;;4.57;;
70150;SDS011;57517;43.562;19.540;2024-03-22T12:55:06;7.55;;;5.28;;
70150;SDS011;57517;43.562;19.540;2024-03-22T12:57:32;9.93;;;5.28;;
70150;SDS011;57517;43.562;19.540;2024-03-22T12:59:58;9.00;;;5.55;;
70150;SDS011;57517;43.562;19.540;2024-03-22T13:02:23;9.45;;;6.57;;
70150;SDS011;57517;43.562;19.540;2024-03-22T13:04:51;8.13;;;6.25;;
70150;SDS011;57517;43.562;19.540;2024-03-22T13:07:18;8.30;;;5.70;;
70150;SDS011;57517;43.562;19.540;2024-03-22T13:09:45;15.43;;;10.32;;
70150;SDS011;57517;43.562;19.540;2024-03-22T13:12:11;13.75;;;5.75;;
70150;SDS011;57517;43.562;19.540;2024-03-22T13:14:36;10.23;;;7.00;;
70150;SDS011;57517;43.562;19.540;2024-03-22T13:17:02;8.23;;;6.50;;
70150;SDS011;57517;43.562;19.540;2024-03-22T13:19:28;8.75;;;5.32;;
70150;SDS011;57517;43.562;19.540;2024-03-22T13:21:54;9.40;;;5.05;;
70150;SDS011;57517;43.562;19.540;2024-03-22T13:24:20;9.43;;;5.97;;
70150;SDS011;57517;43.562;19.540;2024-03-22T13:26:46;10.32;;;7.10;;
70150;SDS011;57517;43.562;19.540;2024-03-22T13:29:12;12.88;;;6.43;;
70150;SDS011;57517;43.562;19.540;2024-03-22T13:31:39;14.05;;;7.68;;
70150;SDS011;57517;43.562;19.540;2024-03-22T13:34:05;11.20;;;7.15;;
70150;SDS011;57517;43.562;19.540;2024-03-22T13:36:30;10.27;;;6.35;;
70150;SDS011;57517;43.562;19.540;2024-03-22T13:38:59;10.13;;;5.15;;
70150;SDS011;57517;43.562;19.540;2024-03-22T13:41:25;8.63;;;5.30;;
70150;SDS011;57517;43.562;19.540;2024-03-22T13:43:51;20.90;;;11.85;;
70150;SDS011;57517;43.562;19.540;2024-03-22T13:46:16;15.30;;;9.40;;
70150;SDS011;57517;43.562;19.540;2024-03-22T13:48:42;15.82;;;10.48;;
70150;SDS011;57517;43.562;19.540;2024-03-22T13:51:08;14.38;;;9.82;;
70150;SDS011;57517;43.562;19.540;2024-03-22T13:53:35;11.93;;;8.63;;
70150;SDS011;57517;43.562;19.540;2024-03-22T13:56:02;9.32;;;5.90;;
70150;SDS011;57517;43.562;19.540;2024-03-22T13:58:28;8.60;;;5.80;;
70150;SDS011;57517;43.562;19.540;2024-03-22T14:00:54;8.43;;;6.63;;
70150;SDS011;57517;43.562;19.540;2024-03-22T14:03:20;8.50;;;5.38;;
70150;SDS011;57517;43.562;19.540;2024-03-22T14:05:45;9.77;;;6.50;;
70150;SDS011;57517;43.562;19.540;2024-03-22T14:08:11;12.13;;;7.82;;
70150;SDS011;57517;43.562;19.540;2024-03-22T14:10:37;10.35;;;6.63;;